Seward, AK

1:54 PM AKST on February 12, 2016 (GMT -0900)
Seward | | Change Station
CLOSE
Current Station
Airport
Location: Seward,
Elevation: 20 ft
Nearby Weather Stations

Elev 20 ft 60.13 °N, 149.42 °W | Updated 1 hour ago

Mostly Cloudy
Mostly Cloudy
46 °F
Feels Like 41 °F
N
9
Wind Variable Wind from North

Today
High -- | Low -- °F
--% Chance of Precip.
Yesterday
High -- | Low -- °F
Precip. -- in
Pressure 29.26 in
Visibility 10.0 miles
Clouds Mostly Cloudy 6500 ft
Mostly Cloudy 8000 ft
Windchill 41 °F
Dew Point 33 °F
Humidity 61%
Rainfall 0.00 in
Snow Depth Not available.
8:44 AM 5:39 PM
Waxing Crescent, 24% visible
METAR PAWD 122153Z AUTO 35008KT 10SM BKN065 BKN080 08/01 A2926 RMK AO2 SLP908 T00780006 TSNO
Pressure 29.26 in
Visibility 10.0 miles
Clouds Mostly Cloudy 6500 ft
Mostly Cloudy 8000 ft
Windchill 41 °F
Dew Point 33 °F
Humidity 61%
Rainfall 0.00 in
Snow Depth Not available.
8:44 AM 5:39 PM
Waxing Crescent, 24% visible
METAR PAWD 122153Z AUTO 35008KT 10SM BKN065 BKN080 08/01 A2926 RMK AO2 SLP908 T00780006 TSNO

10-Day Weather Forecast

Almanac

Astronomy

Feb. 12, 2016 Rise Set
Actual Time
Civil Twilight
Nautical Twilight
Astronomical Twilight
Moon
Length of Visible Light
Length of Day
Tomorrow will be .
, % of the Moon is Illuminated

Today's Extremes

State Highs State Lows

Community

WunderPhotos

Upload Photos

1,892,424 photos uploaded!

WunderBlog® & News

Nearby

Air Quality

  Air Quality AQ Index Pollutant
Not available.

Snow Depth

Station Depth Elevation

Earthquake Activity

City Distance Mag. Time & Date
Minimum magnitude displayed is 2.5.

Coastal Water Temperatures

Place Temperature

Stations

Nearby Weather Stations

Station Location Temp. Windchill Dew Point Humidity Wind Precip. Elev Updated Type
                   

Watches & Warnings

There are currently no watches in effect.